Pagrindinis puslapis
METAR-TAF:

METAR-TAF

Oro uostai :

Taičungas, Taiwan

platuma: 24-15-53N, ilguma: 120-37-14E, Aukštis: 202 m

Dabartinis oras

Ataskaita buvo paskelbta 26 minutes, ne 04:30 UTC
Vėjas 5 kt iš Šiaurės
Temperatūra 28°C
Drėgmė 51%
Slėgis 1018 hPa
Matomumas 10 km arba daugiau
Mažai debesys ne aukštis 1200 ft

METAR: RCMQ 130430Z 35005KT 9999 FEW012 28/17 Q1018 NOSIG RMK A3006

Laikas: 12:56 (04:56 UTC)

Prognozė

Ataskaita buvo paskelbta 5 valandos ir 56 minutes, ne 23:00 UTC
Prognozė galioja nuo 13 metu 00 UTC su 13 metu 24 UTC
Vėjas 4 kt iš Šiaurės/Šiaurės Rytų
Matomumas: 5000 m
Mažai debesys ne aukštis 1200 ft
rūkana
Tapsmas
nuo 13 metu 01 UTC su 13 metu 02 UTC
Matomumas: 8000 m
Tapsmas
nuo 13 metu 03 UTC su 13 metu 06 UTC
Vėjas 8 kt iš Šiaurės
Matomumas 10 km arba daugiau
Tapsmas
nuo 13 metu 12 UTC su 13 metu 15 UTC
Vėjas 13 kt iš Šiaurės/Šiaurės Rytų

TAF: RCMQ 122300Z 1300/1324 02004KT 5000 BR FEW012 TX27/1306Z TN18/1321Z BECMG 1301/1302 8000 BECMG 1303/1306 01008KT 9999 BECMG 1312/1315 02013KT

Orai ataskaitas ir orų prognozės (METAR, TAF).

turimą stotys yra geltonos ir raudonos taškus žemėlapyje.

Perkelti pele per norėdami pamatyti stoties vardą.

Tada spustelėkite, norėdami matyti oro stebėjimo ir prognozės.

Norėdami pakeisti žemėlapį: spustelėkite ant žalios mygtukų su juodo kryžiaus žemyn,; žalią mygtuką su brūkšneliu, jei norite nutolinti; arba žalių rodyklių gretimoms žemėlapius.


METAR-TAF: